Terminal Aerodrome Forecast
Issued by NWS

Current Version | Previous Version | Text Only | Print | Product List | Glossary On
Versions: 1 2 3 4 5 6 7 8 9 10 11 12 13 14 15 16
000
FTUS43 KMQT 290527
TAFSAW
TAF
KSAW 290527Z 2906/3006 23008KT P6SM BKN130
     FM291400 21006KT P6SM BKN045
     FM291600 21006KT P6SM BKN070
     FM291700 20006KT P6SM SCT070
     FM292300 00000KT P6SM SCT100=

USA.gov is the U.S. government's official web portal to all federal, state and local government web resources and services.